createdAt,value
2022-10-24T00:00:46.114Z,96.82
2022-10-24T00:05:49.228Z,96.82
2022-10-24T00:10:51.834Z,96.61
2022-10-24T00:15:54.391Z,96.45
2022-10-24T00:20:56.962Z,96.49
2022-10-24T00:26:04.382Z,96.70
2022-10-24T00:31:08.745Z,97.14
2022-10-24T00:36:18.068Z,96.14
2022-10-24T00:41:20.523Z,95.32
2022-10-24T00:46:23.063Z,95.43
2022-10-24T00:51:33.409Z,95.13
2022-10-24T00:56:57.829Z,95.10
2022-10-24T01:02:00.334Z,94.66
2022-10-24T01:07:19.728Z,94.25
2022-10-24T01:12:59.202Z,94.50
2022-10-24T01:18:07.627Z,94.86
2022-10-24T01:23:15.869Z,94.56
2022-10-24T01:29:02.802Z,95.15
2022-10-24T01:34:18.613Z,94.92
2022-10-24T01:39:25.599Z,94.52
2022-10-24T01:44:33.829Z,94.96
2022-10-24T01:49:40.276Z,94.63
2022-10-24T01:54:44.905Z,94.62
2022-10-24T01:59:48.743Z,94.07
2022-10-24T02:04:51.232Z,94.60
2022-10-24T02:10:00.384Z,94.58
2022-10-24T02:15:25.265Z,94.22
2022-10-24T02:20:33.605Z,94.62
2022-10-24T02:25:39.772Z,95.25
2022-10-24T02:31:06.788Z,94.36
2022-10-24T02:36:14.355Z,95.06
2022-10-24T02:41:22.744Z,94.68
2022-10-24T02:46:26.913Z,95.00
2022-10-24T02:51:32.879Z,94.94
2022-10-24T02:56:40.150Z,94.96
2022-10-24T03:01:42.791Z,95.57
2022-10-24T03:06:45.653Z,95.38
2022-10-24T03:11:48.351Z,96.10
2022-10-24T03:16:50.974Z,95.49
2022-10-24T03:21:53.557Z,95.35
2022-10-24T03:26:56.259Z,94.89
2022-10-24T03:31:58.861Z,95.59
2022-10-24T03:37:01.353Z,95.64
2022-10-24T03:42:04.165Z,95.79
2022-10-24T03:47:06.912Z,95.71
2022-10-24T03:52:09.522Z,96.17
2022-10-24T03:57:12.283Z,95.89
2022-10-24T04:02:15.088Z,96.33
2022-10-24T04:07:17.721Z,95.56
2022-10-24T04:12:20.240Z,95.46
2022-10-24T04:17:22.853Z,96.06
2022-10-24T04:22:25.474Z,96.05
2022-10-24T04:27:28.167Z,96.20
2022-10-24T04:32:30.751Z,96.46
2022-10-24T04:37:33.340Z,96.99
2022-10-24T04:42:36.221Z,97.02
2022-10-24T04:47:38.835Z,97.07
2022-10-24T04:52:41.973Z,97.18
2022-10-24T04:57:44.685Z,96.83
2022-10-24T05:02:47.512Z,97.01
2022-10-24T05:07:50.150Z,96.90
2022-10-24T05:12:52.683Z,96.77
2022-10-24T05:17:55.260Z,96.01
2022-10-24T05:22:57.733Z,96.84
2022-10-24T05:28:00.323Z,96.41
2022-10-24T05:33:02.868Z,97.21
2022-10-24T05:38:05.461Z,96.06
2022-10-24T05:43:08.313Z,96.24
2022-10-24T05:48:10.972Z,96.35
2022-10-24T05:53:13.924Z,96.00
2022-10-24T05:58:21.101Z,95.97
2022-10-24T06:03:24.029Z,95.61
2022-10-24T06:08:26.565Z,95.10
2022-10-24T06:13:33.826Z,95.38
2022-10-24T06:18:39.709Z,94.73
2022-10-24T06:23:42.353Z,94.24
2022-10-24T06:28:45.126Z,93.71
2022-10-24T06:33:47.784Z,93.51
2022-10-24T06:38:50.795Z,91.23
2022-10-24T06:43:54.030Z,90.83
2022-10-24T06:48:56.927Z,90.91
2022-10-24T06:54:00.042Z,90.82
2022-10-24T06:59:02.623Z,90.11
2022-10-24T07:04:05.544Z,89.59
2022-10-24T07:09:11.467Z,88.71
2022-10-24T07:14:16.974Z,87.50
2022-10-24T07:19:19.532Z,85.92
2022-10-24T07:24:22.779Z,84.80
2022-10-24T07:29:25.740Z,83.76
2022-10-24T07:34:28.296Z,84.26
2022-10-24T07:39:30.874Z,83.86
2022-10-24T07:44:33.425Z,83.81
2022-10-24T07:49:36.951Z,83.36
2022-10-24T07:54:39.509Z,83.31
2022-10-24T07:59:42.847Z,82.74
2022-10-24T08:04:45.688Z,82.92
2022-10-24T08:09:51.018Z,82.79
2022-10-24T08:14:55.868Z,82.01
2022-10-24T08:19:58.688Z,81.48
2022-10-24T08:25:02.429Z,80.55
2022-10-24T08:30:05.731Z,80.70
2022-10-24T08:35:08.752Z,79.76
2022-10-24T08:40:19.332Z,78.91
2022-10-24T08:45:39.105Z,78.50
2022-10-24T08:50:47.476Z,79.76
2022-10-24T08:55:56.052Z,83.94
2022-10-24T09:01:02.131Z,84.88
2022-10-24T09:06:12.528Z,85.79
2022-10-24T09:11:27.121Z,86.06
2022-10-24T09:16:29.809Z,85.55
2022-10-24T09:21:32.458Z,87.67
2022-10-24T09:26:37.724Z,87.19
2022-10-24T09:31:40.588Z,87.54
2022-10-24T09:36:44.696Z,88.21
2022-10-24T09:41:47.386Z,87.75
2022-10-24T09:46:49.989Z,87.95
2022-10-24T09:52:20.141Z,87.26
2022-10-24T09:57:25.780Z,87.71
2022-10-24T10:02:34.758Z,86.95
2022-10-24T10:07:41.695Z,86.77
2022-10-24T10:12:46.789Z,85.40
2022-10-24T10:17:52.363Z,85.22
2022-10-24T10:22:54.925Z,84.00
2022-10-24T10:28:01.041Z,83.35
2022-10-24T10:33:40.336Z,79.98
2022-10-24T10:39:23.699Z,78.58
2022-10-24T10:44:59.416Z,77.06
2022-10-24T10:50:09.139Z,76.88
2022-10-24T10:55:14.463Z,75.56
2022-10-24T11:00:34.960Z,73.50
2022-10-24T11:05:58.824Z,70.77
2022-10-24T11:11:06.979Z,70.18
2022-10-24T11:16:21.745Z,70.37
2022-10-24T11:21:27.419Z,69.04
2022-10-24T11:26:44.998Z,67.75
2022-10-24T11:32:13.710Z,65.61
2022-10-24T11:37:28.126Z,64.99
2022-10-24T11:42:36.577Z,63.38
2022-10-24T11:48:06.985Z,61.24
2022-10-24T11:53:25.404Z,59.43
2022-10-24T11:58:32.232Z,59.51
2022-10-24T12:03:56.227Z,58.21
2022-10-24T12:09:10.851Z,56.71
2022-10-24T12:14:21.989Z,55.33
2022-10-24T12:19:26.602Z,54.25
2022-10-24T12:24:39.102Z,52.18
2022-10-24T12:29:43.639Z,51.29
2022-10-24T12:35:12.227Z,51.34
2022-10-24T12:40:45.729Z,51.61
2022-10-24T12:45:48.355Z,51.95
2022-10-24T12:51:00.628Z,52.55
2022-10-24T12:56:13.098Z,52.45
2022-10-24T13:01:33.565Z,52.73
2022-10-24T13:07:12.076Z,52.22
2022-10-24T13:12:33.324Z,52.43
2022-10-24T13:17:48.446Z,52.91
2022-10-24T13:23:00.610Z,52.67
2022-10-24T13:28:24.455Z,52.48
2022-10-24T13:33:40.555Z,53.95
2022-10-24T13:39:02.311Z,53.34
2022-10-24T13:44:33.300Z,52.44
2022-10-24T13:49:54.304Z,53.10
2022-10-24T13:55:05.568Z,52.67
2022-10-24T14:00:19.000Z,53.18
2022-10-24T14:05:44.810Z,53.31
2022-10-24T14:10:48.300Z,54.38
2022-10-24T14:15:54.988Z,54.25
2022-10-24T14:21:00.909Z,54.76
2022-10-24T14:26:07.099Z,55.35
2022-10-24T14:31:20.838Z,56.07
2022-10-24T14:36:27.688Z,56.70
2022-10-24T14:41:32.926Z,57.76
2022-10-24T14:46:37.112Z,58.59
2022-10-24T14:51:41.520Z,58.83
2022-10-24T14:56:44.198Z,58.83
2022-10-24T15:02:32.668Z,59.30
2022-10-24T15:07:42.478Z,60.04
2022-10-24T15:12:56.973Z,60.84
2022-10-24T15:18:09.682Z,61.59
2022-10-24T15:23:44.673Z,62.37
2022-10-24T15:28:56.052Z,63.14
2022-10-24T15:33:58.689Z,64.14
2022-10-24T15:39:06.476Z,64.52
2022-10-24T15:44:25.709Z,64.69
2022-10-24T15:49:29.129Z,65.00
2022-10-24T15:54:31.737Z,66.33
2022-10-24T15:59:34.277Z,67.46
2022-10-24T16:04:40.370Z,68.05
2022-10-24T16:09:42.981Z,68.55
2022-10-24T16:14:45.558Z,68.84
2022-10-24T16:19:48.076Z,69.22
2022-10-24T16:24:51.531Z,69.68
2022-10-24T16:29:54.401Z,70.54
2022-10-24T16:34:57.676Z,70.91
2022-10-24T16:40:00.645Z,71.31
2022-10-24T16:45:04.193Z,71.86
2022-10-24T16:50:07.517Z,71.43
2022-10-24T16:55:13.088Z,72.12
2022-10-24T17:00:17.710Z,72.42
2022-10-24T17:05:23.812Z,72.93
2022-10-24T17:10:26.416Z,73.01
2022-10-24T17:15:29.013Z,73.16
2022-10-24T17:20:31.898Z,73.91
2022-10-24T17:25:35.114Z,74.27
2022-10-24T17:30:37.792Z,74.72
2022-10-24T17:35:47.554Z,74.80
2022-10-24T17:40:50.501Z,75.18
2022-10-24T17:45:54.836Z,75.02
2022-10-24T17:50:58.817Z,75.44
2022-10-24T17:56:01.528Z,75.56
2022-10-24T18:01:04.401Z,76.15
2022-10-24T18:06:07.661Z,76.16
2022-10-24T18:11:11.921Z,76.13
2022-10-24T18:16:17.062Z,76.55
2022-10-24T18:21:25.415Z,76.75
2022-10-24T18:26:28.227Z,76.84
2022-10-24T18:31:31.549Z,77.50
2022-10-24T18:36:34.138Z,77.68
2022-10-24T18:41:56.032Z,78.44
2022-10-24T18:47:01.509Z,78.53
2022-10-24T18:52:10.168Z,78.05
2022-10-24T18:57:23.854Z,78.14
2022-10-24T19:02:38.241Z,78.65
2022-10-24T19:07:41.326Z,78.79
2022-10-24T19:12:44.245Z,79.41
2022-10-24T19:17:48.295Z,79.20
2022-10-24T19:22:51.607Z,79.24
2022-10-24T19:27:54.547Z,79.34
2022-10-24T19:32:57.262Z,79.43
2022-10-24T19:38:00.231Z,79.44
2022-10-24T19:43:02.889Z,79.68
2022-10-24T19:48:05.788Z,79.92
2022-10-24T19:53:08.417Z,79.91
2022-10-24T19:58:13.588Z,79.05
2022-10-24T20:03:16.599Z,79.47
2022-10-24T20:08:19.149Z,80.28
2022-10-24T20:13:22.177Z,81.04
2022-10-24T20:18:26.808Z,81.07
2022-10-24T20:23:29.406Z,80.69
2022-10-24T20:28:40.498Z,80.81
2022-10-24T20:33:44.713Z,80.91
2022-10-24T20:38:47.521Z,81.53
2022-10-24T20:43:53.776Z,81.14
2022-10-24T20:48:57.158Z,81.67
2022-10-24T20:53:59.958Z,81.47
2022-10-24T20:59:02.502Z,81.70
2022-10-24T21:04:05.258Z,82.31
2022-10-24T21:09:07.926Z,82.23
2022-10-24T21:14:12.670Z,81.89
2022-10-24T21:19:15.394Z,82.09
2022-10-24T21:24:18.556Z,83.05
2022-10-24T21:29:32.754Z,83.10
2022-10-24T21:34:36.411Z,82.96
2022-10-24T21:39:39.058Z,83.72
2022-10-24T21:44:41.695Z,82.62
2022-10-24T21:49:44.224Z,82.78
2022-10-24T21:54:47.116Z,83.54
2022-10-24T21:59:50.112Z,83.59
2022-10-24T22:04:52.674Z,84.03
2022-10-24T22:09:55.266Z,83.85
2022-10-24T22:14:57.800Z,84.58
2022-10-24T22:20:00.421Z,84.20
2022-10-24T22:25:03.110Z,84.27
2022-10-24T22:30:06.360Z,83.99
2022-10-24T22:35:10.461Z,84.08
2022-10-24T22:40:22.836Z,84.88
2022-10-24T22:45:25.857Z,84.35
2022-10-24T22:50:40.431Z,84.66
2022-10-24T22:56:04.624Z,84.52
2022-10-24T23:01:37.877Z,84.92
2022-10-24T23:06:49.010Z,85.30
2022-10-24T23:11:51.901Z,85.22
2022-10-24T23:16:59.763Z,85.39
2022-10-24T23:22:27.171Z,85.69
2022-10-24T23:27:35.002Z,86.11
2022-10-24T23:32:39.028Z,86.14
2022-10-24T23:37:47.384Z,85.87
2022-10-24T23:42:51.470Z,85.58
2022-10-24T23:48:15.614Z,86.24
2022-10-24T23:53:49.037Z,85.81
2022-10-24T23:58:52.577Z,85.70
